createdAt,value
2018-08-13T00:12:21.350Z,5.93
2018-08-13T00:14:51.798Z,7.40
2018-08-13T00:34:43.017Z,6.27
2018-08-13T00:37:13.058Z,6.43
2018-08-13T00:39:42.686Z,5.17
2018-08-13T00:42:12.548Z,8.27
2018-08-13T00:44:42.388Z,7.37
2018-08-13T00:47:11.991Z,5.80
2018-08-13T00:49:41.426Z,5.80
2018-08-13T00:52:11.395Z,5.90
2018-08-13T00:54:41.137Z,6.30
2018-08-13T00:57:11.278Z,7.80
2018-08-13T00:59:41.569Z,9.03
2018-08-13T01:02:11.379Z,7.03
2018-08-13T01:04:41.074Z,6.30
2018-08-13T01:07:10.920Z,6.93
2018-08-13T01:09:40.403Z,7.70
2018-08-13T01:12:10.040Z,7.47
2018-08-13T01:14:40.086Z,5.77
2018-08-13T01:17:09.466Z,8.10
2018-08-13T01:19:39.045Z,7.97
2018-08-13T01:22:08.973Z,10.20
2018-08-13T01:42:01.258Z,6.87
2018-08-13T02:01:52.031Z,8.70
2018-08-13T02:04:21.710Z,7.33
2018-08-13T02:06:51.077Z,8.20
2018-08-13T02:09:20.877Z,7.80
2018-08-13T02:11:50.458Z,8.80
2018-08-13T02:14:20.173Z,7.87
2018-08-13T02:16:50.020Z,10.73
2018-08-13T02:19:19.696Z,11.10
2018-08-13T02:47:51.755Z,7.60
2018-08-13T02:50:21.612Z,8.00
2018-08-13T02:52:51.394Z,8.13
2018-08-13T02:55:21.005Z,9.20
2018-08-13T02:57:51.234Z,10.07
2018-08-13T03:00:20.938Z,7.23
2018-08-13T03:02:50.308Z,11.27
2018-08-13T03:05:20.295Z,7.80
2018-08-13T03:07:50.122Z,10.40
2018-08-13T03:27:41.401Z,11.17
2018-08-13T03:30:12.469Z,9.10
2018-08-13T03:50:04.176Z,14.67
2018-08-13T03:52:33.523Z,13.80
2018-08-13T03:55:03.098Z,18.10
2018-08-13T03:57:32.416Z,15.13
2018-08-13T04:00:02.299Z,61.73
2018-08-13T04:02:31.836Z,54.30
2018-08-13T04:22:24.317Z,51.30
2018-08-13T04:24:53.837Z,24.73
2018-08-13T04:44:45.599Z,22.53
2018-08-13T04:47:15.422Z,25.77
2018-08-13T04:49:44.718Z,14.87
2018-08-13T04:52:14.720Z,20.17
2018-08-13T04:54:44.384Z,20.07
2018-08-13T04:57:14.197Z,15.77
2018-08-13T04:59:43.637Z,11.70
2018-08-13T05:02:13.130Z,12.57
2018-08-13T05:04:42.454Z,38.53
2018-08-13T05:07:12.461Z,20.43
2018-08-13T05:09:42.114Z,21.80
2018-08-13T05:12:11.900Z,12.50
2018-08-13T05:14:41.916Z,17.63
2018-08-13T05:17:12.121Z,22.03
2018-08-13T05:19:41.884Z,20.13
2018-08-13T05:22:11.475Z,13.30
2018-08-13T05:24:41.228Z,29.17
2018-08-13T05:27:10.791Z,18.30
2018-08-13T05:29:40.762Z,15.90
2018-08-13T05:32:10.278Z,20.20
2018-08-13T05:34:40.024Z,16.00
2018-08-13T05:37:09.701Z,16.03
2018-08-13T05:39:39.286Z,13.43
2018-08-13T05:42:08.837Z,14.80
2018-08-13T05:44:39.030Z,16.13
2018-08-13T05:47:08.546Z,14.97
2018-08-13T05:49:38.246Z,15.23
2018-08-13T05:52:08.493Z,17.53
2018-08-13T05:54:37.953Z,14.37
2018-08-13T05:57:07.667Z,13.60
2018-08-13T05:59:37.802Z,12.40
2018-08-13T06:19:29.799Z,13.83
2018-08-13T06:21:59.835Z,14.77
2018-08-13T06:24:29.330Z,27.10
2018-08-13T06:26:59.116Z,13.10
2018-08-13T06:29:29.003Z,16.37
2018-08-13T06:31:58.812Z,13.93
2018-08-13T06:34:28.310Z,13.37
2018-08-13T06:36:58.262Z,14.20
2018-08-13T06:39:27.746Z,12.83
2018-08-13T06:41:57.236Z,11.57
2018-08-13T06:44:26.788Z,13.00
2018-08-13T06:46:56.376Z,14.87
2018-08-13T07:06:48.601Z,11.70
2018-08-13T07:09:18.525Z,12.03
2018-08-13T07:29:10.809Z,14.80
2018-08-13T07:49:02.456Z,13.30
2018-08-13T07:51:32.656Z,9.30
2018-08-13T07:54:02.365Z,15.23
2018-08-13T07:56:31.952Z,12.07
2018-08-13T07:59:02.357Z,16.87
2018-08-13T08:18:54.401Z,13.37
2018-08-13T08:21:24.669Z,11.13
2018-08-13T08:23:54.538Z,14.47
2018-08-13T08:26:24.322Z,14.93
2018-08-13T08:28:54.401Z,11.13
2018-08-13T08:31:23.807Z,9.90
2018-08-13T08:33:54.193Z,13.37
2018-08-13T08:53:46.845Z,8.87
2018-08-13T08:56:16.588Z,9.47
2018-08-13T08:58:46.516Z,8.10
2018-08-13T09:01:16.361Z,9.07
2018-08-13T09:03:46.139Z,16.97
2018-08-13T09:23:49.704Z,5.70
2018-08-13T09:26:30.224Z,6.13
2018-08-13T09:46:22.014Z,7.40
2018-08-13T09:48:51.561Z,9.93
2018-08-13T09:51:21.292Z,4.90
2018-08-13T09:53:51.089Z,8.47
2018-08-13T09:56:20.916Z,5.63
2018-08-13T10:16:12.867Z,8.93
2018-08-13T10:18:42.390Z,6.83
2018-08-13T10:21:12.175Z,7.87
2018-08-13T10:23:42.200Z,6.73
2018-08-13T10:26:11.712Z,4.87
2018-08-13T10:28:40.998Z,6.50
2018-08-13T10:31:10.935Z,7.13
2018-08-13T10:33:40.405Z,4.40
2018-08-13T10:36:09.997Z,7.93
2018-08-13T10:38:39.756Z,6.17
2018-08-13T10:41:09.432Z,9.20
2018-08-13T10:43:39.190Z,6.13
2018-08-13T10:46:09.366Z,12.73
2018-08-13T10:48:38.882Z,6.37
2018-08-13T10:51:08.639Z,5.83
2018-08-13T10:53:38.462Z,5.23
2018-08-13T10:56:08.338Z,4.00
2018-08-13T10:58:37.931Z,5.83
2018-08-13T11:01:08.159Z,9.10
2018-08-13T11:03:37.763Z,5.57
2018-08-13T11:06:07.459Z,5.80
2018-08-13T11:08:37.082Z,6.27
2018-08-13T11:28:28.404Z,5.43
2018-08-13T11:30:58.126Z,8.07
2018-08-13T11:33:27.830Z,8.30
2018-08-13T11:35:57.476Z,4.10
2018-08-13T11:38:26.821Z,9.77
2018-08-13T11:40:56.352Z,4.57
2018-08-13T12:00:48.024Z,3.90
2018-08-13T12:03:17.737Z,7.00
2018-08-13T12:05:47.603Z,5.37
2018-08-13T12:08:17.427Z,8.10
2018-08-13T12:10:46.918Z,4.67
2018-08-13T12:13:16.468Z,5.70
2018-08-13T12:15:46.469Z,7.17
2018-08-13T12:18:16.539Z,5.07
2018-08-13T12:20:47.568Z,4.33
2018-08-13T12:40:38.737Z,7.63
2018-08-13T12:43:09.161Z,6.93
2018-08-13T13:03:00.442Z,6.17
2018-08-13T13:05:29.930Z,9.57
2018-08-13T13:07:59.671Z,8.10
2018-08-13T13:10:29.216Z,6.53
2018-08-13T13:12:59.291Z,3.73
2018-08-13T13:32:51.301Z,11.40
2018-08-13T13:35:21.606Z,5.07
2018-08-13T13:37:51.117Z,6.13
2018-08-13T13:40:20.901Z,5.03
2018-08-13T13:42:51.067Z,5.27
2018-08-13T13:45:20.694Z,11.43
2018-08-13T13:47:50.418Z,6.63
2018-08-13T13:50:20.722Z,5.53
2018-08-13T14:10:14.511Z,8.03
2018-08-13T14:12:45.063Z,4.23
2018-08-13T14:15:16.097Z,12.97
2018-08-13T14:17:46.289Z,11.73
2018-08-13T14:20:16.104Z,6.37
2018-08-13T14:51:43.193Z,6.27
2018-08-13T14:54:12.706Z,7.13
2018-08-13T14:56:42.354Z,9.03
2018-08-13T14:59:12.508Z,11.80
2018-08-13T15:01:42.070Z,3.57
2018-08-13T15:04:11.624Z,4.63
2018-08-13T15:06:41.579Z,5.77
2018-08-13T15:09:11.927Z,7.27
2018-08-13T15:11:42.807Z,3.93
2018-08-13T15:14:14.201Z,8.27
2018-08-13T15:16:44.527Z,4.90
2018-08-13T15:19:14.146Z,5.93
2018-08-13T15:39:09.293Z,6.97
2018-08-13T15:41:38.982Z,6.77
2018-08-13T15:44:10.175Z,5.80
2018-08-13T15:46:40.016Z,4.50
2018-08-13T15:49:11.265Z,4.53
2018-08-13T15:51:41.075Z,3.73
2018-08-13T15:54:10.971Z,3.40
2018-08-13T15:56:40.901Z,4.83
2018-08-13T15:59:11.371Z,5.60
2018-08-13T16:01:41.046Z,5.00
2018-08-13T16:04:11.218Z,6.40
2018-08-13T16:06:40.842Z,9.23
2018-08-13T16:09:10.456Z,8.03
2018-08-13T16:29:02.045Z,6.97
2018-08-13T16:31:31.703Z,6.77
2018-08-13T16:34:01.452Z,4.87
2018-08-13T16:36:31.383Z,6.67
2018-08-13T16:39:00.982Z,6.20
2018-08-13T16:41:30.534Z,5.20
2018-08-13T17:01:22.207Z,9.40
2018-08-13T17:03:51.787Z,5.57
2018-08-13T17:06:21.302Z,6.70
2018-08-13T17:26:14.067Z,12.97
2018-08-13T17:28:43.759Z,9.57
2018-08-13T17:31:13.763Z,4.27
2018-08-13T17:33:43.947Z,5.93
2018-08-13T17:36:13.776Z,7.87
2018-08-13T17:56:05.706Z,5.67
2018-08-13T17:58:35.343Z,6.57
2018-08-13T18:01:05.242Z,7.60
2018-08-13T18:03:35.419Z,5.17
2018-08-13T18:06:05.248Z,10.23
2018-08-13T18:08:35.045Z,10.07
2018-08-13T18:11:05.161Z,7.87
2018-08-13T18:13:35.476Z,10.30
2018-08-13T18:16:05.345Z,8.90
2018-08-13T18:18:35.538Z,9.23
2018-08-13T18:21:05.676Z,11.40
2018-08-13T18:23:35.206Z,6.83
2018-08-13T18:26:05.353Z,8.23
2018-08-13T18:28:35.524Z,8.63
2018-08-13T18:31:05.077Z,13.43
2018-08-13T18:33:35.634Z,8.10
2018-08-13T18:36:05.555Z,9.17
2018-08-13T18:38:35.366Z,7.87
2018-08-13T18:41:04.875Z,8.57
2018-08-13T18:43:34.553Z,5.87
2018-08-13T18:46:04.355Z,8.33
2018-08-13T18:48:34.606Z,13.57
2018-08-13T18:51:05.217Z,4.73
2018-08-13T18:53:35.531Z,5.57
2018-08-13T18:56:05.261Z,4.80
2018-08-13T18:58:35.052Z,13.60
2018-08-13T19:01:04.719Z,7.93
2018-08-13T19:03:34.380Z,7.53
2018-08-13T19:06:05.085Z,10.73
2018-08-13T19:08:34.548Z,7.87
2018-08-13T19:11:04.411Z,7.97
2018-08-13T19:13:34.370Z,10.07
2018-08-13T19:16:03.834Z,4.90
2018-08-13T19:35:55.922Z,8.17
2018-08-13T19:38:25.871Z,7.67
2018-08-13T19:40:55.525Z,8.23
2018-08-13T19:43:25.974Z,10.13
2018-08-13T19:45:55.737Z,10.67
2018-08-13T19:48:25.801Z,23.97
2018-08-13T19:50:55.181Z,12.07
2018-08-13T19:53:25.122Z,18.80
2018-08-13T19:55:54.958Z,21.03
2018-08-13T19:58:24.764Z,10.50
2018-08-13T20:00:54.540Z,12.03
2018-08-13T20:03:24.459Z,10.53
2018-08-13T20:05:54.566Z,9.37
2018-08-13T20:25:46.340Z,12.27
2018-08-13T20:28:16.486Z,12.47
2018-08-13T20:30:46.940Z,9.83
2018-08-13T20:33:16.633Z,8.70
2018-08-13T20:35:46.934Z,10.07
2018-08-13T20:38:16.424Z,6.87
2018-08-13T20:40:46.292Z,12.03
2018-08-13T20:43:16.073Z,9.60
2018-08-13T20:45:45.677Z,9.33
2018-08-13T20:48:15.278Z,5.27
2018-08-13T20:50:45.520Z,5.43
2018-08-13T20:53:15.082Z,5.53
2018-08-13T20:55:44.871Z,7.13
2018-08-13T20:58:14.982Z,6.13
2018-08-13T21:00:44.469Z,8.93
2018-08-13T21:03:14.148Z,9.00
2018-08-13T21:05:44.366Z,6.83
2018-08-13T21:08:13.895Z,5.90
2018-08-13T21:10:43.448Z,8.40
2018-08-13T21:13:13.640Z,21.47
2018-08-13T21:15:43.000Z,8.40
2018-08-13T21:18:13.556Z,10.17
2018-08-13T21:20:43.815Z,9.00
2018-08-13T21:23:13.412Z,7.40
2018-08-13T21:25:43.171Z,10.57
2018-08-13T21:28:13.419Z,4.53
2018-08-13T21:30:42.975Z,6.60
2018-08-13T21:33:12.901Z,9.70
2018-08-13T21:35:42.374Z,7.83
2018-08-13T21:38:12.149Z,8.00
2018-08-13T21:40:41.957Z,5.60
2018-08-13T21:43:11.916Z,8.57
2018-08-13T21:45:42.638Z,7.00
2018-08-13T21:48:12.285Z,7.97
2018-08-13T21:50:42.254Z,6.60
2018-08-13T21:53:11.971Z,6.37
2018-08-13T21:55:41.757Z,11.70
2018-08-13T21:58:12.125Z,12.67
2018-08-13T22:00:47.806Z,24.93
2018-08-13T22:03:18.037Z,11.13
2018-08-13T22:05:47.587Z,7.63
2018-08-13T22:08:17.088Z,5.80
2018-08-13T22:10:47.159Z,6.77
2018-08-13T22:13:16.957Z,7.50
2018-08-13T22:15:46.527Z,8.07
2018-08-13T22:18:16.560Z,8.37
2018-08-13T22:20:46.068Z,13.07
2018-08-13T22:23:15.858Z,11.80
2018-08-13T22:25:47.121Z,14.90
2018-08-13T22:28:18.158Z,10.93
2018-08-13T22:30:49.235Z,5.47
2018-08-13T22:33:19.128Z,6.53
2018-08-13T22:35:48.728Z,7.20
2018-08-13T22:38:19.248Z,4.43
2018-08-13T22:40:49.225Z,6.33
2018-08-13T22:43:18.790Z,5.33
2018-08-13T22:45:49.126Z,8.47
2018-08-13T22:48:18.576Z,4.67
2018-08-13T22:50:49.131Z,7.37
2018-08-13T22:53:18.965Z,7.50
2018-08-13T22:55:48.641Z,10.20
2018-08-13T22:58:18.463Z,5.87
2018-08-13T23:00:48.271Z,6.03
2018-08-13T23:03:18.007Z,8.80
2018-08-13T23:05:47.888Z,9.83
2018-08-13T23:08:17.707Z,8.27
2018-08-13T23:10:47.633Z,11.03
2018-08-13T23:13:19.457Z,5.97
2018-08-13T23:15:49.221Z,4.80
2018-08-13T23:18:19.006Z,8.03
2018-08-13T23:20:48.775Z,6.70
2018-08-13T23:23:19.386Z,6.67
2018-08-13T23:25:48.756Z,7.53
2018-08-13T23:28:18.897Z,6.60
2018-08-13T23:30:48.419Z,6.67
2018-08-13T23:33:17.918Z,8.13
2018-08-13T23:35:48.962Z,7.73
2018-08-13T23:38:18.700Z,9.23
2018-08-13T23:40:48.509Z,5.73
2018-08-13T23:43:18.361Z,7.70
2018-08-13T23:45:48.282Z,8.90
2018-08-13T23:48:17.910Z,5.23
2018-08-13T23:50:47.921Z,7.37
2018-08-13T23:53:17.694Z,8.77
2018-08-13T23:55:47.265Z,7.73
2018-08-13T23:58:17.164Z,11.70
